Time;durP1;ratioP1;P1;durP2;ratioP2;P2;SDS_P1;SDS_P2;PMS_P1;PMS_P2;Temp;Humidity;BMP_temperature;BMP_pressure;BME280_temperature;BME280_humidity;BME280_pressure;Samples;Min_cycle;Max_cycle;Signal;HPM_P1;HPM_P2
2021/05/19 00:01:35;;;;;;;0.00;0.00;;;9.60;99.90;;;;;;4997248;28;20685;-68
2021/05/19 00:04:01;;;;;;;4.50;0.87;;;9.50;99.90;;;;;;4999854;28;20224;-69
2021/05/19 00:06:28;;;;;;;0.00;0.00;;;9.50;99.90;;;;;;4996541;28;20201;-69
2021/05/19 00:08:54;;;;;;;0.00;0.00;;;9.40;99.90;;;;;;4995156;28;20742;-69
2021/05/19 00:11:21;;;;;;;0.00;0.00;;;9.40;99.90;;;;;;4996621;28;20240;-68
2021/05/19 00:13:48;;;;;;;0.00;0.00;;;9.40;99.90;;;;;;5000742;28;20201;-69
2021/05/19 00:16:15;;;;;;;0.30;0.20;;;9.30;99.90;;;;;;4995745;28;20297;-70
2021/05/19 00:18:41;;;;;;;0.00;0.00;;;9.30;99.90;;;;;;4996830;28;20197;-70
2021/05/19 00:21:09;;;;;;;0.00;0.00;;;9.30;99.90;;;;;;4998530;28;20189;-69
2021/05/19 00:23:35;;;;;;;0.00;0.00;;;9.20;99.90;;;;;;4995844;28;20223;-69
2021/05/19 00:26:02;;;;;;;0.00;0.00;;;9.20;99.90;;;;;;4993599;28;20209;-70
2021/05/19 00:28:29;;;;;;;0.63;0.63;;;9.10;99.90;;;;;;4993940;28;20214;-68
2021/05/19 00:30:57;;;;;;;0.00;0.00;;;9.10;99.90;;;;;;4997604;28;20655;-70
2021/05/19 00:33:24;;;;;;;0.50;0.50;;;9.10;99.90;;;;;;4993696;28;20270;-69
2021/05/19 00:35:51;;;;;;;0.00;0.00;;;9.00;99.90;;;;;;4996465;28;20671;-68
2021/05/19 00:38:18;;;;;;;0.00;0.00;;;9.00;99.90;;;;;;5003477;28;20193;-69
2021/05/19 00:40:45;;;;;;;0.00;0.00;;;9.00;99.90;;;;;;4995113;28;20210;-69
2021/05/19 00:43:11;;;;;;;0.10;0.10;;;8.90;99.90;;;;;;4997791;28;20205;-69
2021/05/19 00:45:39;;;;;;;0.07;0.07;;;8.90;99.90;;;;;;4997671;28;20223;-68
2021/05/19 00:48:07;;;;;;;0.40;0.40;;;8.90;99.90;;;;;;4993290;28;20216;-70
2021/05/19 00:50:34;;;;;;;0.00;0.00;;;8.90;99.90;;;;;;4996415;28;20654;-68
2021/05/19 00:53:00;;;;;;;0.00;0.00;;;8.90;99.90;;;;;;4994828;28;20209;-68
2021/05/19 00:55:27;;;;;;;0.00;0.00;;;8.90;99.90;;;;;;4995187;28;20201;-69
2021/05/19 00:57:55;;;;;;;0.23;0.20;;;8.90;99.90;;;;;;4993443;28;20201;-70
2021/05/19 01:00:23;;;;;;;0.00;0.00;;;8.90;99.90;;;;;;4997438;28;20256;-68
2021/05/19 01:02:52;;;;;;;0.00;0.00;;;8.90;99.90;;;;;;4995141;28;20228;-69
2021/05/19 01:05:24;;;;;;;1.90;0.40;;;8.90;99.90;;;;;;4998768;28;20225;-68
2021/05/19 01:10:40;;;;;;;0.00;0.00;;;8.90;99.90;;;;;;4957232;28;20249;-68
2021/05/19 01:13:07;;;;;;;0.00;0.00;;;8.80;99.90;;;;;;4996038;28;20972;-69
2021/05/19 01:15:34;;;;;;;0.00;0.00;;;8.80;99.90;;;;;;4989472;28;21053;-68
2021/05/19 01:18:03;;;;;;;0.00;0.00;;;8.80;99.90;;;;;;4995269;28;20265;-69
2021/05/19 01:20:30;;;;;;;0.30;0.10;;;8.90;99.90;;;;;;4995140;28;20228;-71
2021/05/19 01:22:57;;;;;;;0.43;0.43;;;9.00;99.90;;;;;;4993832;28;20209;-69
2021/05/19 01:25:24;;;;;;;0.10;0.10;;;9.00;99.90;;;;;;4994828;28;20229;-69
2021/05/19 01:27:52;;;;;;;0.00;0.00;;;9.10;99.90;;;;;;4993215;28;20255;-68
2021/05/19 01:30:20;;;;;;;0.57;0.57;;;9.10;99.90;;;;;;4997006;28;20241;-69
2021/05/19 01:32:47;;;;;;;0.23;0.23;;;9.10;99.90;;;;;;4988131;28;20213;-70
2021/05/19 01:35:14;;;;;;;0.77;0.43;;;9.30;99.90;;;;;;4994156;28;20255;-71
2021/05/19 01:37:41;;;;;;;1.00;0.60;;;9.40;99.90;;;;;;4985889;28;20197;-69
2021/05/19 01:40:09;;;;;;;0.10;0.10;;;9.50;99.90;;;;;;4999329;28;20206;-69
2021/05/19 01:42:36;;;;;;;0.00;0.00;;;9.60;99.90;;;;;;4989365;28;20288;-69
2021/05/19 01:45:03;;;;;;;0.10;0.10;;;9.70;99.90;;;;;;4990940;28;20723;-70
2021/05/19 01:47:40;;;;;;;0.63;0.63;;;9.70;99.90;;;;;;4989012;28;20241;-69
2021/05/19 01:50:09;;;;;;;1.57;1.47;;;9.80;99.90;;;;;;4986497;28;20197;-70
2021/05/19 01:52:37;;;;;;;0.53;0.53;;;9.90;99.90;;;;;;4983306;28;20244;-70
2021/05/19 01:55:05;;;;;;;0.10;0.10;;;9.90;99.90;;;;;;4994174;28;20201;-70
2021/05/19 01:57:33;;;;;;;0.00;0.00;;;10.00;99.90;;;;;;4990182;28;20232;-68
2021/05/19 02:00:00;;;;;;;0.97;0.43;;;10.10;99.90;;;;;;4992511;28;20730;-69
2021/05/19 02:02:27;;;;;;;0.33;0.33;;;10.10;99.90;;;;;;4988311;28;20777;-69
2021/05/19 02:04:55;;;;;;;0.10;0.10;;;10.10;99.90;;;;;;4988642;28;20621;-69
2021/05/19 02:07:22;;;;;;;0.00;0.00;;;10.20;99.90;;;;;;4990721;28;20315;-70
2021/05/19 02:09:48;;;;;;;4.30;1.70;;;10.20;99.90;;;;;;4990146;28;20204;-69
2021/05/19 02:12:16;;;;;;;1.50;0.97;;;10.20;99.90;;;;;;4988914;28;20204;-69
2021/05/19 02:14:44;;;;;;;0.70;0.53;;;10.20;99.90;;;;;;4993195;28;20205;-68
2021/05/19 02:17:10;;;;;;;0.40;0.13;;;10.30;99.90;;;;;;4983856;28;20232;-71
2021/05/19 02:19:38;;;;;;;4.57;1.33;;;10.30;99.90;;;;;;4995462;28;20200;-68
2021/05/19 02:22:05;;;;;;;0.43;0.20;;;10.30;99.90;;;;;;4988879;28;20206;-70
2021/05/19 02:24:32;;;;;;;0.10;0.10;;;10.30;99.90;;;;;;4991901;28;20221;-69
2021/05/19 02:26:58;;;;;;;0.00;0.00;;;10.30;99.90;;;;;;4990100;28;20608;-71
2021/05/19 02:29:25;;;;;;;0.10;0.10;;;10.30;99.90;;;;;;4993686;28;20201;-69
2021/05/19 02:31:53;;;;;;;0.00;0.00;;;10.30;99.90;;;;;;4989461;28;20236;-68
2021/05/19 02:34:19;;;;;;;2.20;1.43;;;10.40;99.90;;;;;;4990608;28;20648;-68
2021/05/19 02:36:45;;;;;;;1.30;1.20;;;10.40;99.90;;;;;;4994203;28;20609;-69
2021/05/19 02:39:13;;;;;;;0.77;0.73;;;10.30;99.90;;;;;;4996209;28;20205;-69
2021/05/19 02:41:41;;;;;;;3.40;0.30;;;10.40;99.90;;;;;;4990497;28;20300;-69
2021/05/19 02:44:09;;;;;;;0.30;0.30;;;10.40;99.90;;;;;;4996129;28;20705;-70
2021/05/19 02:46:35;;;;;;;0.20;0.20;;;10.40;99.90;;;;;;4991528;28;20209;-70
2021/05/19 02:49:04;;;;;;;0.10;0.10;;;10.40;99.90;;;;;;4993205;28;20555;-68
2021/05/19 02:51:32;;;;;;;0.00;0.00;;;10.40;99.90;;;;;;4995841;28;20201;-71
2021/05/19 02:53:58;;;;;;;0.60;0.60;;;10.40;99.90;;;;;;4999821;28;20213;-70
2021/05/19 02:56:25;;;;;;;0.73;0.40;;;10.30;99.90;;;;;;4997038;28;20261;-70
2021/05/19 02:58:52;;;;;;;0.93;0.67;;;10.40;99.90;;;;;;5000889;28;20197;-69
2021/05/19 03:01:19;;;;;;;0.50;0.40;;;10.40;99.90;;;;;;5002284;28;20236;-69
2021/05/19 03:03:46;;;;;;;0.00;0.00;;;10.30;99.90;;;;;;4993231;28;20228;-69
2021/05/19 03:06:13;;;;;;;1.17;1.07;;;10.30;99.90;;;;;;4991437;28;20262;-70
2021/05/19 03:08:40;;;;;;;2.03;1.93;;;10.30;99.90;;;;;;4992145;28;20216;-70
2021/05/19 03:11:09;;;;;;;0.10;0.10;;;10.30;99.90;;;;;;4995116;28;20259;-69
2021/05/19 03:13:35;;;;;;;2.03;0.93;;;10.20;99.90;;;;;;4995615;28;20336;-70
2021/05/19 03:16:02;;;;;;;0.20;0.20;;;10.20;99.90;;;;;;4995284;28;20201;-69
2021/05/19 03:18:29;;;;;;;0.43;0.43;;;10.20;99.90;;;;;;4995690;28;20201;-69
2021/05/19 03:20:55;;;;;;;0.97;0.97;;;10.10;99.90;;;;;;4997812;28;20582;-71
2021/05/19 03:23:23;;;;;;;0.07;0.07;;;10.10;99.90;;;;;;4993926;28;20201;-71
2021/05/19 03:25:49;;;;;;;0.27;0.27;;;10.00;99.90;;;;;;4992642;28;20288;-70
2021/05/19 03:28:16;;;;;;;0.00;0.00;;;10.00;99.90;;;;;;4994308;28;20205;-69
2021/05/19 03:30:42;;;;;;;0.90;0.77;;;10.00;99.90;;;;;;4997669;28;20236;-69
2021/05/19 03:33:08;;;;;;;0.00;0.00;;;10.00;99.90;;;;;;4997177;28;20208;-69
2021/05/19 03:35:35;;;;;;;0.10;0.10;;;10.00;99.90;;;;;;4994889;28;20208;-69
2021/05/19 03:38:02;;;;;;;0.13;0.13;;;10.00;99.90;;;;;;4994631;28;20563;-69
2021/05/19 03:40:29;;;;;;;1.00;0.93;;;10.00;99.90;;;;;;4994939;28;21083;-70
2021/05/19 03:42:56;;;;;;;0.57;0.40;;;10.00;99.90;;;;;;4994902;28;21241;-69
2021/05/19 03:45:24;;;;;;;2.80;2.20;;;10.00;99.90;;;;;;4993055;28;20276;-70
2021/05/19 03:47:53;;;;;;;0.00;0.00;;;10.00;99.90;;;;;;4995531;28;20217;-70
2021/05/19 03:50:21;;;;;;;0.33;0.33;;;10.10;99.90;;;;;;4995927;28;20208;-70
2021/05/19 03:52:47;;;;;;;0.43;0.43;;;10.00;99.90;;;;;;4996910;28;20242;-69
2021/05/19 03:55:15;;;;;;;0.20;0.20;;;10.10;99.90;;;;;;4995424;28;20201;-69
2021/05/19 03:57:42;;;;;;;0.00;0.00;;;10.10;99.90;;;;;;4996621;28;20209;-69
2021/05/19 04:00:13;;;;;;;0.50;0.50;;;10.10;99.90;;;;;;4995629;28;20663;-69
2021/05/19 04:02:40;;;;;;;0.83;0.83;;;10.10;99.90;;;;;;4994001;28;20201;-70
2021/05/19 04:05:07;;;;;;;0.00;0.00;;;10.20;99.90;;;;;;4993899;28;20269;-68
2021/05/19 04:07:34;;;;;;;0.80;0.80;;;10.20;99.90;;;;;;4995730;28;20197;-70
2021/05/19 04:10:00;;;;;;;0.30;0.20;;;10.20;99.90;;;;;;4997368;28;20223;-69
2021/05/19 04:12:27;;;;;;;0.00;0.00;;;10.20;99.90;;;;;;4998485;28;20220;-70
2021/05/19 04:14:54;;;;;;;1.03;1.03;;;10.20;99.90;;;;;;4994550;28;20209;-70
2021/05/19 04:17:21;;;;;;;0.30;0.30;;;10.20;99.90;;;;;;4996186;28;20250;-68
2021/05/19 04:19:47;;;;;;;0.60;0.60;;;10.20;99.90;;;;;;4991492;28;20200;-69
2021/05/19 04:22:13;;;;;;;0.00;0.00;;;10.20;99.90;;;;;;5003458;28;20202;-70
2021/05/19 04:24:40;;;;;;;0.60;0.53;;;10.20;99.90;;;;;;4993491;28;20224;-69
2021/05/19 04:27:06;;;;;;;0.30;0.30;;;10.10;99.90;;;;;;4995514;28;20201;-70
2021/05/19 04:29:33;;;;;;;0.10;0.10;;;10.20;99.90;;;;;;4993616;28;20197;-69
2021/05/19 04:32:00;;;;;;;0.83;0.73;;;10.10;99.90;;;;;;4996493;28;20823;-68
2021/05/19 04:34:27;;;;;;;0.13;0.13;;;10.20;99.90;;;;;;4995402;28;20228;-69
2021/05/19 04:36:53;;;;;;;0.83;0.40;;;10.20;99.90;;;;;;4994709;28;20213;-70
2021/05/19 04:39:20;;;;;;;0.10;0.10;;;10.30;99.90;;;;;;4992608;28;20260;-70
2021/05/19 04:41:46;;;;;;;3.07;0.90;;;10.40;99.90;;;;;;4993599;28;20209;-69
2021/05/19 04:44:13;;;;;;;0.20;0.20;;;10.50;99.90;;;;;;4992508;28;20256;-69
2021/05/19 04:46:39;;;;;;;0.00;0.00;;;10.50;99.90;;;;;;4994450;28;20212;-68
2021/05/19 04:49:07;;;;;;;0.07;0.07;;;10.60;99.90;;;;;;4995567;28;20204;-69
2021/05/19 04:51:34;;;;;;;4.13;1.80;;;10.60;99.90;;;;;;4994902;28;20611;-69
2021/05/19 04:54:01;;;;;;;0.37;0.37;;;10.70;99.90;;;;;;4993120;28;20808;-69
2021/05/19 04:56:27;;;;;;;0.63;0.63;;;10.90;99.90;;;;;;4995208;28;20296;-69
2021/05/19 04:58:54;;;;;;;0.73;0.23;;;11.00;99.90;;;;;;4993313;28;20277;-69
2021/05/19 05:01:20;;;;;;;1.40;0.67;;;11.20;99.90;;;;;;4995234;28;20694;-69
2021/05/19 05:03:47;;;;;;;0.27;0.27;;;11.20;99.90;;;;;;4991500;28;20620;-69
2021/05/19 05:06:14;;;;;;;0.00;0.00;;;11.20;99.90;;;;;;4994734;28;20208;-69
2021/05/19 05:08:41;;;;;;;0.13;0.13;;;11.20;99.90;;;;;;4995385;28;20197;-69
2021/05/19 05:11:08;;;;;;;0.30;0.30;;;11.20;99.90;;;;;;4995041;28;20206;-68
2021/05/19 05:13:34;;;;;;;0.00;0.00;;;11.20;99.90;;;;;;4992573;28;20296;-70
2021/05/19 05:16:01;;;;;;;0.00;0.00;;;11.10;99.90;;;;;;4993277;28;20664;-69
2021/05/19 05:18:33;;;;;;;9.33;0.63;;;11.10;99.90;;;;;;4992569;28;20213;-71
2021/05/19 05:20:59;;;;;;;0.60;0.60;;;11.10;99.90;;;;;;4993819;28;20240;-72
2021/05/19 05:23:28;;;;;;;1.80;0.77;;;11.10;99.90;;;;;;4996382;28;20208;-71
2021/05/19 05:25:54;;;;;;;2.63;1.00;;;11.10;99.90;;;;;;4993406;28;20232;-71
2021/05/19 05:28:21;;;;;;;0.70;0.40;;;11.10;99.90;;;;;;4991935;28;20275;-72
2021/05/19 05:30:48;;;;;;;0.07;0.07;;;11.10;99.90;;;;;;4991352;28;20231;-71
2021/05/19 05:33:15;;;;;;;0.00;0.00;;;11.20;99.90;;;;;;4997681;28;20204;-70
2021/05/19 05:35:41;;;;;;;0.20;0.00;;;11.20;99.90;;;;;;4995554;28;20217;-70
2021/05/19 05:38:08;;;;;;;0.00;0.00;;;11.30;99.90;;;;;;5000986;28;20204;-69
2021/05/19 05:40:36;;;;;;;0.00;0.00;;;11.30;99.90;;;;;;4998319;28;20210;-71
2021/05/19 05:43:02;;;;;;;2.80;2.60;;;11.40;99.90;;;;;;5003353;28;20271;-69
2021/05/19 05:45:29;;;;;;;1.03;0.83;;;11.40;99.90;;;;;;4995096;28;20239;-69
2021/05/19 05:47:56;;;;;;;0.00;0.00;;;11.50;99.90;;;;;;4993342;28;20547;-69
2021/05/19 05:50:23;;;;;;;0.00;0.00;;;11.50;99.90;;;;;;4995984;28;20783;-69
2021/05/19 05:52:50;;;;;;;0.10;0.10;;;11.60;99.90;;;;;;4997175;28;20202;-71
2021/05/19 05:55:17;;;;;;;0.00;0.00;;;11.70;99.90;;;;;;4998486;28;20201;-71
2021/05/19 05:57:44;;;;;;;0.10;0.10;;;11.80;99.90;;;;;;4997046;28;20206;-69
2021/05/19 06:00:13;;;;;;;0.70;0.67;;;11.80;99.90;;;;;;4998604;28;20205;-72
2021/05/19 06:02:39;;;;;;;1.03;1.03;;;11.80;99.90;;;;;;4999408;28;20263;-70
2021/05/19 06:05:06;;;;;;;0.00;0.00;;;11.80;99.90;;;;;;4994676;28;20221;-72
2021/05/19 06:07:33;;;;;;;0.00;0.00;;;11.80;99.90;;;;;;4996158;28;20210;-71
2021/05/19 06:09:59;;;;;;;0.73;0.53;;;11.80;99.90;;;;;;4994549;28;20212;-72
2021/05/19 06:12:26;;;;;;;0.00;0.00;;;11.90;99.90;;;;;;4993426;28;20198;-72
2021/05/19 06:14:53;;;;;;;1.37;0.13;;;12.00;99.90;;;;;;4994461;28;20220;-71
2021/05/19 06:17:20;;;;;;;0.60;0.27;;;12.50;99.90;;;;;;4994306;28;20201;-71
2021/05/19 06:19:47;;;;;;;0.17;0.10;;;13.60;99.90;;;;;;5007427;28;20200;-71
2021/05/19 06:22:13;;;;;;;0.97;0.97;;;14.70;99.90;;;;;;4992883;28;20213;-71
2021/05/19 06:24:40;;;;;;;1.97;1.27;;;15.90;99.90;;;;;;4996035;28;20233;-74
2021/05/19 06:27:07;;;;;;;0.00;0.00;;;16.80;99.90;;;;;;4999973;28;22319;-68
2021/05/19 06:29:33;;;;;;;0.27;0.27;;;17.20;99.90;;;;;;5006092;28;20209;-69
2021/05/19 06:32:01;;;;;;;1.07;1.07;;;17.30;99.90;;;;;;5005673;28;20216;-70
2021/05/19 06:34:27;;;;;;;0.10;0.10;;;17.10;99.90;;;;;;5008603;28;20205;-70
2021/05/19 06:36:54;;;;;;;4.60;0.40;;;16.50;99.90;;;;;;5005528;28;20259;-70
2021/05/19 06:39:22;;;;;;;1.40;0.30;;;16.00;99.90;;;;;;5009035;28;20570;-70
2021/05/19 06:41:50;;;;;;;2.93;0.67;;;15.30;99.90;;;;;;5004995;28;20212;-70
2021/05/19 06:44:18;;;;;;;0.53;0.50;;;14.90;99.90;;;;;;5005098;28;20221;-70
2021/05/19 06:46:45;;;;;;;0.30;0.30;;;14.50;99.90;;;;;;5002420;28;20212;-68
2021/05/19 06:49:12;;;;;;;0.27;0.27;;;14.20;99.90;;;;;;5004217;28;20225;-68
2021/05/19 06:51:41;;;;;;;0.20;0.20;;;14.10;99.90;;;;;;5005905;28;20208;-70
2021/05/19 06:54:07;;;;;;;1.47;0.70;;;13.90;99.90;;;;;;5004990;28;20275;-69
2021/05/19 06:56:34;;;;;;;0.00;0.00;;;13.70;99.90;;;;;;5010350;28;20592;-71
2021/05/19 06:59:01;;;;;;;0.10;0.10;;;13.60;99.90;;;;;;5003725;28;20219;-69
2021/05/19 07:01:28;;;;;;;0.00;0.00;;;13.50;99.90;;;;;;5004936;28;20205;-69
2021/05/19 07:03:55;;;;;;;3.30;1.90;;;13.40;99.90;;;;;;5005947;28;20212;-69
2021/05/19 07:06:22;;;;;;;0.00;0.00;;;13.40;99.90;;;;;;5006118;28;20216;-71
2021/05/19 07:08:50;;;;;;;1.07;1.03;;;13.40;99.90;;;;;;5002580;28;20205;-70
2021/05/19 07:11:16;;;;;;;0.27;0.27;;;13.50;99.90;;;;;;5002375;28;20201;-70
2021/05/19 07:13:43;;;;;;;1.80;1.70;;;13.70;99.90;;;;;;5008742;28;20201;-71
2021/05/19 07:16:11;;;;;;;0.60;0.40;;;14.00;99.90;;;;;;5005358;28;20201;-72
2021/05/19 07:18:38;;;;;;;1.97;1.87;;;14.00;99.90;;;;;;5006380;28;20655;-70
2021/05/19 07:21:05;;;;;;;0.27;0.27;;;14.00;99.90;;;;;;5005825;28;20267;-70
2021/05/19 07:23:32;;;;;;;0.53;0.53;;;14.00;99.90;;;;;;5006975;28;20654;-70
2021/05/19 07:25:59;;;;;;;1.10;0.40;;;14.00;99.90;;;;;;5011258;28;20275;-69
2021/05/19 07:28:25;;;;;;;0.00;0.00;;;14.10;99.90;;;;;;5010103;28;20212;-70
2021/05/19 07:30:52;;;;;;;0.00;0.00;;;14.70;99.90;;;;;;5009725;28;20228;-70
2021/05/19 07:33:18;;;;;;;0.33;0.33;;;15.60;99.90;;;;;;5007483;28;20511;-70
2021/05/19 07:35:46;;;;;;;0.30;0.30;;;16.50;99.90;;;;;;5005568;28;20209;-70
2021/05/19 07:38:12;;;;;;;0.73;0.73;;;17.30;99.90;;;;;;5008723;28;20611;-70
2021/05/19 07:40:40;;;;;;;2.10;0.43;;;17.40;99.90;;;;;;5010371;28;20240;-70
2021/05/19 07:43:07;;;;;;;2.97;2.67;;;17.50;99.90;;;;;;5010657;28;20259;-71
2021/05/19 07:45:34;;;;;;;0.20;0.20;;;17.40;99.90;;;;;;5008890;28;20236;-71
2021/05/19 07:48:01;;;;;;;0.27;0.27;;;16.70;99.90;;;;;;5006055;28;20303;-71
2021/05/19 07:50:28;;;;;;;0.20;0.20;;;16.20;99.90;;;;;;5009722;28;20198;-70
2021/05/19 07:52:55;;;;;;;0.17;0.17;;;15.90;99.90;;;;;;5007781;28;20213;-70
2021/05/19 07:55:25;;;;;;;0.23;0.23;;;15.60;99.90;;;;;;5010388;28;20205;-70
2021/05/19 07:57:55;;;;;;;0.00;0.00;;;15.40;99.90;;;;;;5011042;28;20597;-70
2021/05/19 08:00:28;;;;;;;0.10;0.10;;;15.30;99.90;;;;;;5007852;28;20215;-69
2021/05/19 08:02:54;;;;;;;0.13;0.13;;;15.00;99.90;;;;;;5007243;28;20211;-70
2021/05/19 08:05:21;;;;;;;0.60;0.60;;;14.90;99.90;;;;;;5009584;28;20243;-69
2021/05/19 08:07:47;;;;;;;0.47;0.30;;;14.70;99.90;;;;;;5009875;28;20204;-70
2021/05/19 08:10:14;;;;;;;0.60;0.60;;;14.30;99.90;;;;;;5010185;28;20212;-69
2021/05/19 08:12:40;;;;;;;0.00;0.00;;;14.10;99.90;;;;;;5012398;28;20248;-70
2021/05/19 08:15:09;;;;;;;1.30;1.20;;;13.80;99.90;;;;;;5005511;28;20205;-70
2021/05/19 08:17:36;;;;;;;0.20;0.20;;;13.60;99.90;;;;;;5011035;28;20255;-70
2021/05/19 08:20:02;;;;;;;0.10;0.10;;;13.30;99.90;;;;;;5007585;28;20236;-70
2021/05/19 08:22:29;;;;;;;0.00;0.00;;;13.00;99.90;;;;;;5009681;28;20690;-69
2021/05/19 08:24:55;;;;;;;0.10;0.10;;;12.80;99.90;;;;;;5008030;28;20231;-71
2021/05/19 08:27:22;;;;;;;0.00;0.00;;;12.70;99.90;;;;;;5010054;28;20201;-69
2021/05/19 08:29:51;;;;;;;0.73;0.73;;;12.70;99.90;;;;;;5007586;28;20209;-70
2021/05/19 08:32:18;;;;;;;0.33;0.27;;;12.90;99.90;;;;;;5007497;28;20208;-69
2021/05/19 08:34:45;;;;;;;0.37;0.37;;;13.20;99.90;;;;;;5006294;28;20200;-69
2021/05/19 08:37:12;;;;;;;0.00;0.00;;;13.20;99.90;;;;;;5009413;28;20204;-70
2021/05/19 08:39:38;;;;;;;1.20;0.10;;;13.30;99.90;;;;;;5007582;28;20201;-69
2021/05/19 08:42:05;;;;;;;0.10;0.10;;;13.00;99.90;;;;;;5009037;28;20212;-70
2021/05/19 08:44:32;;;;;;;0.07;0.07;;;12.80;99.90;;;;;;5005823;28;20220;-70
2021/05/19 08:46:59;;;;;;;0.20;0.20;;;12.60;99.90;;;;;;5004663;28;20697;-70
2021/05/19 08:49:27;;;;;;;0.20;0.13;;;12.50;99.90;;;;;;5005520;28;20214;-69
2021/05/19 08:51:54;;;;;;;0.00;0.00;;;12.30;99.90;;;;;;5002023;28;20212;-69
2021/05/19 08:54:21;;;;;;;0.10;0.10;;;12.50;99.90;;;;;;5003524;28;20214;-69
2021/05/19 08:56:50;;;;;;;0.00;0.00;;;12.40;99.90;;;;;;5004003;28;20295;-70
2021/05/19 08:59:17;;;;;;;0.00;0.00;;;12.40;99.90;;;;;;5004774;28;20201;-71
2021/05/19 09:01:45;;;;;;;0.00;0.00;;;12.50;99.90;;;;;;5002869;28;20200;-70
2021/05/19 09:04:16;;;;;;;0.10;0.10;;;12.70;99.90;;;;;;5004847;28;20205;-70
2021/05/19 09:06:44;;;;;;;0.20;0.10;;;12.50;99.90;;;;;;5003784;28;20201;-71
2021/05/19 09:09:25;;;;;;;0.00;0.00;;;12.20;99.90;;;;;;4999828;28;20216;-71
2021/05/19 09:12:13;;;;;;;0.00;0.00;;;12.00;99.90;;;;;;5003380;28;20224;-71
2021/05/19 09:14:42;;;;;;;0.00;0.00;;;11.90;99.90;;;;;;4998964;28;20205;-71
2021/05/19 09:17:23;;;;;;;0.10;0.10;;;11.70;99.90;;;;;;5001535;28;20687;-69
2021/05/19 09:19:51;;;;;;;0.00;0.00;;;11.70;99.90;;;;;;5001649;28;20220;-69
2021/05/19 09:22:23;;;;;;;0.00;0.00;;;11.50;99.90;;;;;;5003824;28;20259;-70
2021/05/19 09:24:50;;;;;;;0.00;0.00;;;11.50;99.90;;;;;;5002624;28;20248;-70
2021/05/19 09:27:17;;;;;;;0.90;0.90;;;11.50;99.90;;;;;;5004639;28;20205;-70
2021/05/19 09:29:48;;;;;;;0.00;0.00;;;11.40;99.90;;;;;;5002701;28;20205;-70
2021/05/19 09:32:16;;;;;;;0.00;0.00;;;11.50;99.90;;;;;;5003709;28;20256;-70
2021/05/19 09:34:44;;;;;;;0.00;0.00;;;11.40;99.90;;;;;;5003913;28;20197;-69
2021/05/19 09:37:19;;;;;;;0.00;0.00;;;11.40;99.90;;;;;;5003809;28;20205;-70
2021/05/19 09:39:55;;;;;;;0.23;0.10;;;11.30;99.90;;;;;;5001463;28;20259;-71
2021/05/19 09:42:23;;;;;;;0.07;0.03;;;11.40;99.90;;;;;;5003799;28;20204;-69
2021/05/19 09:44:50;;;;;;;0.00;0.00;;;11.40;99.90;;;;;;5005936;28;20217;-69
2021/05/19 09:47:39;;;;;;;0.00;0.00;;;11.50;99.90;;;;;;5007757;28;20205;-70
2021/05/19 09:50:07;;;;;;;0.00;0.00;;;11.60;99.90;;;;;;5000162;28;20205;-69
2021/05/19 09:52:34;;;;;;;0.00;0.00;;;11.80;99.90;;;;;;4994832;28;20236;-69
2021/05/19 09:55:10;;;;;;;0.50;0.10;;;12.10;99.90;;;;;;5006426;28;20197;-70
2021/05/19 09:57:44;;;;;;;0.03;0.03;;;12.40;99.90;;;;;;5002765;28;20205;-70
2021/05/19 10:00:12;;;;;;;0.00;0.00;;;12.70;99.90;;;;;;5004291;28;20253;-69
2021/05/19 10:02:40;;;;;;;0.00;0.00;;;13.30;99.90;;;;;;5002220;28;20200;-70
2021/05/19 10:05:14;;;;;;;0.00;0.00;;;14.40;99.90;;;;;;5007258;28;20232;-68
2021/05/19 10:07:41;;;;;;;0.00;0.00;;;15.10;99.90;;;;;;5011614;28;20283;-72
2021/05/19 10:10:09;;;;;;;0.00;0.00;;;15.30;99.90;;;;;;5003927;28;20240;-68
2021/05/19 10:12:38;;;;;;;0.10;0.10;;;15.70;99.90;;;;;;4999281;28;20573;-67
2021/05/19 10:15:10;;;;;;;0.00;0.00;;;16.20;99.90;;;;;;5009148;28;20248;-67
2021/05/19 10:17:40;;;;;;;0.00;0.00;;;16.70;99.90;;;;;;5009216;28;20201;-67
2021/05/19 10:20:08;;;;;;;0.00;0.00;;;17.00;99.90;;;;;;5006524;28;20208;-73
2021/05/19 10:22:36;;;;;;;0.00;0.00;;;17.20;99.90;;;;;;4998132;28;20228;-68
2021/05/19 10:25:05;;;;;;;0.00;0.00;;;17.20;99.90;;;;;;5008097;28;20236;-69
2021/05/19 10:27:50;;;;;;;0.00;0.00;;;16.90;99.90;;;;;;5007870;28;20212;-68
2021/05/19 10:30:35;;;;;;;0.00;0.00;;;16.70;99.90;;;;;;5006130;28;20634;-70
2021/05/19 10:33:01;;;;;;;0.00;0.00;;;16.40;99.90;;;;;;4996593;28;20212;-68
2021/05/19 10:35:33;;;;;;;0.00;0.00;;;16.10;99.90;;;;;;5007532;28;20197;-68
2021/05/19 10:38:17;;;;;;;0.00;0.00;;;15.80;99.90;;;;;;5008681;28;20205;-68
2021/05/19 10:40:50;;;;;;;0.00;0.00;;;15.50;99.90;;;;;;5006415;28;20655;-69
2021/05/19 10:43:17;;;;;;;0.00;0.00;;;15.10;99.90;;;;;;5008025;28;20201;-69
2021/05/19 10:45:53;;;;;;;0.00;0.00;;;14.90;99.90;;;;;;5007169;28;20224;-68
2021/05/19 10:48:34;;;;;;;0.00;0.00;;;14.70;99.90;;;;;;5008412;28;20598;-68
2021/05/19 10:51:29;;;;;;;0.00;0.00;;;14.50;99.90;;;;;;5003545;28;20573;-68
2021/05/19 11:00:05;;;;;;;0.00;0.00;;;14.30;99.90;;;;;;5005635;28;20283;-67
2021/05/19 11:03:02;;;;;;;0.00;0.00;;;14.30;99.90;;;;;;5004719;28;20659;-69
2021/05/19 11:05:32;;;;;;;0.00;0.00;;;14.40;99.90;;;;;;4988640;28;20241;-69
2021/05/19 11:08:20;;;;;;;0.00;0.00;;;14.50;99.90;;;;;;5002616;28;20204;-68
2021/05/19 11:10:49;;;;;;;0.00;0.00;;;14.40;99.90;;;;;;5005492;28;20216;-68
2021/05/19 11:13:16;;;;;;;0.00;0.00;;;14.40;99.90;;;;;;5007566;28;20216;-69
2021/05/19 11:15:53;;;;;;;0.00;0.00;;;14.40;99.90;;;;;;5005102;28;20201;-69
2021/05/19 11:18:24;;;;;;;0.40;0.40;;;14.50;99.90;;;;;;5004403;28;20296;-68
2021/05/19 11:20:52;;;;;;;0.00;0.00;;;14.60;99.90;;;;;;5001672;28;20340;-68
2021/05/19 11:23:19;;;;;;;0.00;0.00;;;14.60;99.90;;;;;;5004593;28;20211;-69
2021/05/19 11:25:45;;;;;;;0.00;0.00;;;14.60;99.90;;;;;;5004468;28;20744;-70
2021/05/19 11:28:12;;;;;;;0.00;0.00;;;14.60;99.90;;;;;;5003095;28;20209;-69
2021/05/19 11:30:39;;;;;;;0.00;0.00;;;14.70;99.90;;;;;;4997893;28;20237;-71
2021/05/19 11:33:07;;;;;;;0.10;0.10;;;15.00;99.90;;;;;;5004493;28;20208;-71
2021/05/19 11:35:34;;;;;;;0.00;0.00;;;15.30;99.90;;;;;;4962784;28;20218;-69
2021/05/19 11:38:03;;;;;;;0.00;0.00;;;15.40;99.90;;;;;;4963271;28;20206;-71
2021/05/19 11:40:39;;;;;;;0.00;0.00;;;15.40;99.90;;;;;;4965729;28;21174;-70
2021/05/19 11:43:05;;;;;;;0.00;0.00;;;15.30;99.90;;;;;;4965400;28;20524;-70
2021/05/19 11:45:33;;;;;;;0.00;0.00;;;15.20;99.90;;;;;;4963027;28;20888;-71
2021/05/19 11:47:59;;;;;;;0.00;0.00;;;15.00;99.90;;;;;;4967182;28;20202;-68
2021/05/19 11:50:27;;;;;;;0.00;0.00;;;14.80;99.90;;;;;;4969971;28;20229;-68
2021/05/19 11:52:57;;;;;;;0.00;0.00;;;14.70;99.90;;;;;;4963984;28;20314;-68
2021/05/19 11:55:36;;;;;;;0.00;0.00;;;14.50;99.90;;;;;;4963572;28;20226;-71
2021/05/19 11:58:06;;;;;;;0.00;0.00;;;14.20;99.90;;;;;;4968202;28;20226;-68
2021/05/19 12:00:36;;;;;;;0.00;0.00;;;14.20;99.90;;;;;;4965864;28;20638;-70
2021/05/19 12:03:04;;;;;;;0.00;0.00;;;14.10;99.90;;;;;;4962208;28;20212;-70
2021/05/19 12:05:43;;;;;;;0.00;0.00;;;13.90;99.90;;;;;;4965884;28;20238;-71
2021/05/19 12:08:10;;;;;;;0.10;0.10;;;14.00;99.90;;;;;;4965713;28;20215;-70
2021/05/19 12:10:38;;;;;;;0.30;0.30;;;14.10;99.90;;;;;;4963270;28;20289;-70
2021/05/19 12:13:05;;;;;;;0.00;0.00;;;14.10;99.90;;;;;;4967368;28;20257;-70
2021/05/19 12:15:33;;;;;;;0.50;0.50;;;14.20;99.90;;;;;;4964463;28;20210;-70
2021/05/19 12:18:00;;;;;;;0.00;0.00;;;14.50;99.90;;;;;;4964058;28;20211;-70
2021/05/19 12:20:28;;;;;;;0.00;0.00;;;14.60;99.90;;;;;;4962770;28;20217;-71
2021/05/19 12:22:56;;;;;;;0.00;0.00;;;14.90;99.90;;;;;;4966218;28;20209;-71
2021/05/19 12:25:23;;;;;;;0.00;0.00;;;15.10;99.90;;;;;;4965011;28;20237;-70
2021/05/19 12:27:52;;;;;;;0.00;0.00;;;15.30;99.90;;;;;;4967218;28;20229;-70
2021/05/19 12:30:19;;;;;;;0.00;0.00;;;15.40;99.90;;;;;;4965269;28;20325;-70
2021/05/19 12:33:01;;;;;;;0.00;0.00;;;15.80;99.90;;;;;;4967729;28;20743;-70
2021/05/19 12:35:28;;;;;;;0.20;0.03;;;16.00;99.90;;;;;;4963548;28;20217;-71
2021/05/19 12:38:01;;;;;;;0.10;0.10;;;16.10;99.90;;;;;;4962796;28;20198;-71
2021/05/19 12:40:29;;;;;;;0.00;0.00;;;16.10;99.90;;;;;;4961803;28;20202;-70
2021/05/19 12:42:59;;;;;;;0.00;0.00;;;16.30;99.90;;;;;;4960908;28;20253;-71
2021/05/19 12:45:29;;;;;;;0.00;0.00;;;16.60;99.90;;;;;;4961091;28;20369;-71
2021/05/19 12:48:06;;;;;;;0.00;0.00;;;17.00;99.90;;;;;;4961553;28;20217;-69
2021/05/19 12:50:40;;;;;;;0.00;0.00;;;17.80;99.90;;;;;;4958742;28;20210;-70
2021/05/19 12:53:08;;;;;;;0.00;0.00;;;18.80;99.90;;;;;;4959761;28;20206;-70
2021/05/19 12:55:36;;;;;;;0.00;0.00;;;19.60;99.90;;;;;;4965681;28;20273;-71
2021/05/19 12:58:08;;;;;;;0.00;0.00;;;20.30;99.90;;;;;;4964748;28;20290;-70
2021/05/19 13:00:35;;;;;;;0.00;0.00;;;20.50;99.90;;;;;;4958595;28;20214;-72
2021/05/19 13:03:01;;;;;;;0.00;0.00;;;20.70;99.90;;;;;;4967900;28;20207;-70